sensor_id;sensor_type;location;lat;lon;timestamp;P1;durP1;ratioP1;P2;durP2;ratioP2
21827;SDS011;11076;47.942;11.804;2022-11-15T00:02:39;5.17;;;4.00;;
21827;SDS011;11076;47.942;11.804;2022-11-15T00:08:00;9.57;;;4.70;;
21827;SDS011;11076;47.942;11.804;2022-11-15T00:13:21;14.00;;;5.00;;
21827;SDS011;11076;47.942;11.804;2022-11-15T00:18:42;6.33;;;4.47;;
21827;SDS011;11076;47.942;11.804;2022-11-15T00:24:05;9.17;;;5.20;;
21827;SDS011;11076;47.942;11.804;2022-11-15T00:29:26;9.93;;;4.00;;
21827;SDS011;11076;47.942;11.804;2022-11-15T00:34:47;5.27;;;4.00;;
21827;SDS011;11076;47.942;11.804;2022-11-15T00:40:08;5.47;;;3.53;;
21827;SDS011;11076;47.942;11.804;2022-11-15T00:45:29;3.30;;;2.80;;
21827;SDS011;11076;47.942;11.804;2022-11-15T00:50:50;4.70;;;3.20;;
21827;SDS011;11076;47.942;11.804;2022-11-15T00:56:11;8.87;;;3.17;;
21827;SDS011;11076;47.942;11.804;2022-11-15T01:01:32;3.40;;;2.70;;
21827;SDS011;11076;47.942;11.804;2022-11-15T01:06:53;6.40;;;3.10;;
21827;SDS011;11076;47.942;11.804;2022-11-15T01:12:14;4.60;;;3.50;;
21827;SDS011;11076;47.942;11.804;2022-11-15T01:17:35;4.70;;;3.10;;
21827;SDS011;11076;47.942;11.804;2022-11-15T01:22:56;5.73;;;3.23;;
21827;SDS011;11076;47.942;11.804;2022-11-15T01:28:17;4.10;;;3.23;;
21827;SDS011;11076;47.942;11.804;2022-11-15T01:33:37;4.47;;;3.40;;
21827;SDS011;11076;47.942;11.804;2022-11-15T01:38:59;5.17;;;3.53;;
21827;SDS011;11076;47.942;11.804;2022-11-15T01:50:08;3.47;;;3.07;;
21827;SDS011;11076;47.942;11.804;2022-11-15T01:55:32;4.73;;;3.30;;
21827;SDS011;11076;47.942;11.804;2022-11-15T02:00:53;4.20;;;2.70;;
21827;SDS011;11076;47.942;11.804;2022-11-15T02:06:14;2.57;;;2.23;;
21827;SDS011;11076;47.942;11.804;2022-11-15T02:11:35;2.53;;;2.20;;
21827;SDS011;11076;47.942;11.804;2022-11-15T02:22:37;3.03;;;2.50;;
21827;SDS011;11076;47.942;11.804;2022-11-15T02:39:46;6.77;;;2.77;;
21827;SDS011;11076;47.942;11.804;2022-11-15T02:45:19;4.00;;;2.77;;
21827;SDS011;11076;47.942;11.804;2022-11-15T02:50:44;4.20;;;2.80;;
21827;SDS011;11076;47.942;11.804;2022-11-15T02:56:07;2.47;;;2.27;;
21827;SDS011;11076;47.942;11.804;2022-11-15T03:13:39;3.47;;;2.00;;
21827;SDS011;11076;47.942;11.804;2022-11-15T03:19:26;3.23;;;2.40;;
21827;SDS011;11076;47.942;11.804;2022-11-15T03:24:53;3.90;;;2.50;;
21827;SDS011;11076;47.942;11.804;2022-11-15T03:30:17;3.10;;;2.33;;
21827;SDS011;11076;47.942;11.804;2022-11-15T03:35:39;2.30;;;2.10;;
21827;SDS011;11076;47.942;11.804;2022-11-15T03:41:04;2.97;;;2.30;;
21827;SDS011;11076;47.942;11.804;2022-11-15T03:46:32;2.93;;;2.30;;
21827;SDS011;11076;47.942;11.804;2022-11-15T03:52:04;2.60;;;2.40;;
21827;SDS011;11076;47.942;11.804;2022-11-15T03:57:26;2.73;;;2.53;;
21827;SDS011;11076;47.942;11.804;2022-11-15T04:02:47;3.33;;;2.43;;
21827;SDS011;11076;47.942;11.804;2022-11-15T04:08:08;3.60;;;2.50;;
21827;SDS011;11076;47.942;11.804;2022-11-15T04:13:28;3.53;;;2.40;;
21827;SDS011;11076;47.942;11.804;2022-11-15T04:18:50;5.67;;;4.27;;
21827;SDS011;11076;47.942;11.804;2022-11-15T04:24:30;2.63;;;2.43;;
21827;SDS011;11076;47.942;11.804;2022-11-15T04:29:51;7.73;;;2.00;;
21827;SDS011;11076;47.942;11.804;2022-11-15T04:35:12;4.00;;;2.33;;
21827;SDS011;11076;47.942;11.804;2022-11-15T04:40:33;3.40;;;2.87;;
21827;SDS011;11076;47.942;11.804;2022-11-15T04:45:55;11.80;;;7.33;;
21827;SDS011;11076;47.942;11.804;2022-11-15T04:51:15;79.30;;;30.97;;
21827;SDS011;11076;47.942;11.804;2022-11-15T04:56:37;13.00;;;6.30;;
21827;SDS011;11076;47.942;11.804;2022-11-15T05:01:58;6.53;;;4.77;;
21827;SDS011;11076;47.942;11.804;2022-11-15T05:07:18;10.27;;;3.80;;
21827;SDS011;11076;47.942;11.804;2022-11-15T05:12:39;7.90;;;3.27;;
21827;SDS011;11076;47.942;11.804;2022-11-15T05:18:00;5.10;;;3.23;;
21827;SDS011;11076;47.942;11.804;2022-11-15T05:23:21;5.63;;;2.87;;
21827;SDS011;11076;47.942;11.804;2022-11-15T05:28:42;22.60;;;8.10;;
21827;SDS011;11076;47.942;11.804;2022-11-15T05:34:03;3.40;;;2.57;;
21827;SDS011;11076;47.942;11.804;2022-11-15T05:39:25;4.80;;;3.00;;
21827;SDS011;11076;47.942;11.804;2022-11-15T05:44:47;7.50;;;3.00;;
21827;SDS011;11076;47.942;11.804;2022-11-15T05:50:11;4.23;;;2.87;;
21827;SDS011;11076;47.942;11.804;2022-11-15T05:55:34;7.60;;;3.27;;
21827;SDS011;11076;47.942;11.804;2022-11-15T06:00:57;10.53;;;4.17;;
21827;SDS011;11076;47.942;11.804;2022-11-15T06:06:18;8.80;;;5.37;;
21827;SDS011;11076;47.942;11.804;2022-11-15T06:11:39;9.33;;;6.13;;
21827;SDS011;11076;47.942;11.804;2022-11-15T06:17:00;6.63;;;4.13;;
21827;SDS011;11076;47.942;11.804;2022-11-15T06:22:24;6.13;;;3.80;;
21827;SDS011;11076;47.942;11.804;2022-11-15T06:27:50;6.13;;;4.20;;
21827;SDS011;11076;47.942;11.804;2022-11-15T06:33:12;14.60;;;8.73;;
21827;SDS011;11076;47.942;11.804;2022-11-15T06:38:33;12.30;;;5.57;;
21827;SDS011;11076;47.942;11.804;2022-11-15T06:43:55;5.60;;;3.80;;
21827;SDS011;11076;47.942;11.804;2022-11-15T06:49:17;9.47;;;3.57;;
21827;SDS011;11076;47.942;11.804;2022-11-15T06:54:38;19.30;;;9.77;;
21827;SDS011;11076;47.942;11.804;2022-11-15T06:59:59;20.27;;;9.73;;
21827;SDS011;11076;47.942;11.804;2022-11-15T07:05:20;10.90;;;6.03;;
21827;SDS011;11076;47.942;11.804;2022-11-15T07:10:41;26.13;;;9.87;;
21827;SDS011;11076;47.942;11.804;2022-11-15T07:16:03;24.87;;;13.30;;
21827;SDS011;11076;47.942;11.804;2022-11-15T07:21:28;39.87;;;17.80;;
21827;SDS011;11076;47.942;11.804;2022-11-15T07:26:49;32.50;;;14.33;;
21827;SDS011;11076;47.942;11.804;2022-11-15T07:32:10;23.67;;;13.57;;
21827;SDS011;11076;47.942;11.804;2022-11-15T07:37:31;57.77;;;19.37;;
21827;SDS011;11076;47.942;11.804;2022-11-15T07:42:51;22.67;;;11.33;;
21827;SDS011;11076;47.942;11.804;2022-11-15T07:48:16;33.73;;;14.53;;
21827;SDS011;11076;47.942;11.804;2022-11-15T07:53:37;16.13;;;8.87;;
21827;SDS011;11076;47.942;11.804;2022-11-15T07:58:58;11.83;;;7.07;;
21827;SDS011;11076;47.942;11.804;2022-11-15T08:04:19;11.47;;;6.50;;
21827;SDS011;11076;47.942;11.804;2022-11-15T08:09:40;6.13;;;4.83;;
21827;SDS011;11076;47.942;11.804;2022-11-15T08:15:02;6.47;;;5.03;;
21827;SDS011;11076;47.942;11.804;2022-11-15T08:20:23;8.40;;;4.57;;
21827;SDS011;11076;47.942;11.804;2022-11-15T08:25:45;8.93;;;5.37;;
21827;SDS011;11076;47.942;11.804;2022-11-15T08:31:06;6.97;;;5.63;;
21827;SDS011;11076;47.942;11.804;2022-11-15T08:36:27;6.43;;;4.30;;
21827;SDS011;11076;47.942;11.804;2022-11-15T08:41:52;5.17;;;4.10;;
21827;SDS011;11076;47.942;11.804;2022-11-15T08:47:13;6.03;;;4.50;;
21827;SDS011;11076;47.942;11.804;2022-11-15T08:52:36;3.93;;;3.57;;
21827;SDS011;11076;47.942;11.804;2022-11-15T08:57:57;4.43;;;3.03;;
21827;SDS011;11076;47.942;11.804;2022-11-15T09:03:18;3.53;;;2.70;;
21827;SDS011;11076;47.942;11.804;2022-11-15T09:08:40;2.60;;;2.40;;
21827;SDS011;11076;47.942;11.804;2022-11-15T09:14:10;3.70;;;3.13;;
21827;SDS011;11076;47.942;11.804;2022-11-15T09:19:32;3.83;;;2.80;;
21827;SDS011;11076;47.942;11.804;2022-11-15T09:24:53;3.97;;;2.60;;
21827;SDS011;11076;47.942;11.804;2022-11-15T09:30:14;3.93;;;2.77;;
21827;SDS011;11076;47.942;11.804;2022-11-15T09:35:35;5.20;;;2.83;;
21827;SDS011;11076;47.942;11.804;2022-11-15T09:41:08;3.55;;;2.45;;
21827;SDS011;11076;47.942;11.804;2022-11-15T09:52:33;2.75;;;2.55;;
21827;SDS011;11076;47.942;11.804;2022-11-15T09:57:38;2.90;;;2.60;;
21827;SDS011;11076;47.942;11.804;2022-11-15T10:08:23;2.63;;;2.30;;
21827;SDS011;11076;47.942;11.804;2022-11-15T10:13:29;3.13;;;2.30;;
21827;SDS011;11076;47.942;11.804;2022-11-15T10:23:58;2.58;;;2.03;;
21827;SDS011;11076;47.942;11.804;2022-11-15T10:29:00;2.88;;;2.38;;
21827;SDS011;11076;47.942;11.804;2022-11-15T10:34:10;4.45;;;2.78;;
21827;SDS011;11076;47.942;11.804;2022-11-15T10:39:16;6.07;;;2.30;;
21827;SDS011;11076;47.942;11.804;2022-11-15T10:44:22;5.25;;;3.33;;
21827;SDS011;11076;47.942;11.804;2022-11-15T10:49:31;11.70;;;3.42;;
21827;SDS011;11076;47.942;11.804;2022-11-15T10:54:39;6.07;;;2.90;;
21827;SDS011;11076;47.942;11.804;2022-11-15T10:59:44;7.30;;;3.20;;
21827;SDS011;11076;47.942;11.804;2022-11-15T11:04:50;4.75;;;3.10;;
21827;SDS011;11076;47.942;11.804;2022-11-15T11:15:09;3.63;;;2.72;;
21827;SDS011;11076;47.942;11.804;2022-11-15T11:47:23;10.75;;;2.80;;
21827;SDS011;11076;47.942;11.804;2022-11-15T11:52:35;3.88;;;2.25;;
21827;SDS011;11076;47.942;11.804;2022-11-15T11:57:48;4.20;;;2.30;;
21827;SDS011;11076;47.942;11.804;2022-11-15T12:13:26;3.35;;;2.35;;
21827;SDS011;11076;47.942;11.804;2022-11-15T12:18:36;3.53;;;2.53;;
21827;SDS011;11076;47.942;11.804;2022-11-15T12:23:44;3.58;;;2.47;;
21827;SDS011;11076;47.942;11.804;2022-11-15T12:28:59;9.60;;;2.63;;
21827;SDS011;11076;47.942;11.804;2022-11-15T12:40:03;3.35;;;2.88;;
21827;SDS011;11076;47.942;11.804;2022-11-15T12:45:22;2.35;;;2.15;;
21827;SDS011;11076;47.942;11.804;2022-11-15T12:50:52;3.47;;;2.38;;
21827;SDS011;11076;47.942;11.804;2022-11-15T13:06:41;3.78;;;2.70;;
21827;SDS011;11076;47.942;11.804;2022-11-15T13:11:52;7.60;;;3.10;;
21827;SDS011;11076;47.942;11.804;2022-11-15T13:16:58;7.22;;;3.60;;
21827;SDS011;11076;47.942;11.804;2022-11-15T13:22:04;4.97;;;3.35;;
21827;SDS011;11076;47.942;11.804;2022-11-15T13:27:25;4.18;;;3.10;;
21827;SDS011;11076;47.942;11.804;2022-11-15T13:32:27;2.85;;;2.42;;
21827;SDS011;11076;47.942;11.804;2022-11-15T13:37:30;4.13;;;3.22;;
21827;SDS011;11076;47.942;11.804;2022-11-15T13:42:33;4.55;;;3.08;;
21827;SDS011;11076;47.942;11.804;2022-11-15T13:47:36;5.82;;;3.10;;
21827;SDS011;11076;47.942;11.804;2022-11-15T13:52:39;6.18;;;2.67;;
21827;SDS011;11076;47.942;11.804;2022-11-15T13:57:46;4.22;;;3.20;;
21827;SDS011;11076;47.942;11.804;2022-11-15T14:02:53;3.33;;;2.60;;
21827;SDS011;11076;47.942;11.804;2022-11-15T14:08:05;3.20;;;2.78;;
21827;SDS011;11076;47.942;11.804;2022-11-15T14:13:27;4.68;;;2.83;;
21827;SDS011;11076;47.942;11.804;2022-11-15T14:18:48;4.85;;;2.80;;
21827;SDS011;11076;47.942;11.804;2022-11-15T14:23:52;6.18;;;2.55;;
21827;SDS011;11076;47.942;11.804;2022-11-15T14:28:54;2.88;;;2.58;;
21827;SDS011;11076;47.942;11.804;2022-11-15T14:33:57;4.38;;;2.75;;
21827;SDS011;11076;47.942;11.804;2022-11-15T14:38:59;12.13;;;3.00;;
21827;SDS011;11076;47.942;11.804;2022-11-15T14:44:01;3.42;;;2.60;;
21827;SDS011;11076;47.942;11.804;2022-11-15T14:49:04;5.07;;;2.90;;
21827;SDS011;11076;47.942;11.804;2022-11-15T14:54:08;8.05;;;3.20;;
21827;SDS011;11076;47.942;11.804;2022-11-15T14:59:12;6.13;;;3.40;;
21827;SDS011;11076;47.942;11.804;2022-11-15T15:04:14;7.57;;;4.13;;
21827;SDS011;11076;47.942;11.804;2022-11-15T15:09:17;4.75;;;3.50;;
21827;SDS011;11076;47.942;11.804;2022-11-15T15:14:19;6.03;;;4.30;;
21827;SDS011;11076;47.942;11.804;2022-11-15T15:19:21;6.93;;;4.00;;
21827;SDS011;11076;47.942;11.804;2022-11-15T15:24:26;4.60;;;3.53;;
21827;SDS011;11076;47.942;11.804;2022-11-15T15:29:28;9.95;;;3.97;;
21827;SDS011;11076;47.942;11.804;2022-11-15T15:34:30;4.93;;;3.90;;
21827;SDS011;11076;47.942;11.804;2022-11-15T15:39:33;5.47;;;3.70;;
21827;SDS011;11076;47.942;11.804;2022-11-15T15:44:36;5.75;;;2.95;;
21827;SDS011;11076;47.942;11.804;2022-11-15T15:49:38;6.13;;;3.10;;
21827;SDS011;11076;47.942;11.804;2022-11-15T15:54:41;5.93;;;3.63;;
21827;SDS011;11076;47.942;11.804;2022-11-15T15:59:43;5.80;;;3.07;;
21827;SDS011;11076;47.942;11.804;2022-11-15T16:04:46;4.63;;;3.97;;
21827;SDS011;11076;47.942;11.804;2022-11-15T16:09:49;6.70;;;4.00;;
21827;SDS011;11076;47.942;11.804;2022-11-15T16:15:04;7.50;;;4.13;;
21827;SDS011;11076;47.942;11.804;2022-11-15T16:20:08;6.93;;;4.87;;
21827;SDS011;11076;47.942;11.804;2022-11-15T16:25:24;7.83;;;4.67;;
21827;SDS011;11076;47.942;11.804;2022-11-15T16:30:27;7.20;;;5.03;;
21827;SDS011;11076;47.942;11.804;2022-11-15T16:35:29;7.07;;;4.73;;
21827;SDS011;11076;47.942;11.804;2022-11-15T16:40:32;10.13;;;3.97;;
21827;SDS011;11076;47.942;11.804;2022-11-15T16:45:36;15.87;;;8.47;;
21827;SDS011;11076;47.942;11.804;2022-11-15T16:50:39;14.00;;;9.13;;
21827;SDS011;11076;47.942;11.804;2022-11-15T16:55:41;15.40;;;9.10;;
21827;SDS011;11076;47.942;11.804;2022-11-15T17:00:44;11.43;;;7.50;;
21827;SDS011;11076;47.942;11.804;2022-11-15T17:05:47;14.80;;;8.13;;
21827;SDS011;11076;47.942;11.804;2022-11-15T17:10:49;9.33;;;6.97;;
21827;SDS011;11076;47.942;11.804;2022-11-15T17:16:01;11.60;;;6.87;;
21827;SDS011;11076;47.942;11.804;2022-11-15T17:21:15;14.10;;;6.37;;
21827;SDS011;11076;47.942;11.804;2022-11-15T17:26:20;7.07;;;4.53;;
21827;SDS011;11076;47.942;11.804;2022-11-15T17:31:30;6.73;;;4.37;;
21827;SDS011;11076;47.942;11.804;2022-11-15T17:36:34;9.60;;;5.37;;
21827;SDS011;11076;47.942;11.804;2022-11-15T17:41:37;18.67;;;7.07;;
21827;SDS011;11076;47.942;11.804;2022-11-15T17:46:39;13.20;;;6.07;;
21827;SDS011;11076;47.942;11.804;2022-11-15T17:51:42;18.17;;;5.57;;
21827;SDS011;11076;47.942;11.804;2022-11-15T17:56:47;7.37;;;4.53;;
21827;SDS011;11076;47.942;11.804;2022-11-15T18:01:49;10.03;;;5.93;;
21827;SDS011;11076;47.942;11.804;2022-11-15T18:06:51;5.70;;;4.03;;
21827;SDS011;11076;47.942;11.804;2022-11-15T18:11:54;7.00;;;4.27;;
21827;SDS011;11076;47.942;11.804;2022-11-15T18:16:56;11.37;;;5.50;;
21827;SDS011;11076;47.942;11.804;2022-11-15T18:21:59;6.77;;;4.20;;
21827;SDS011;11076;47.942;11.804;2022-11-15T18:27:03;14.97;;;5.40;;
21827;SDS011;11076;47.942;11.804;2022-11-15T18:32:07;10.77;;;4.93;;
21827;SDS011;11076;47.942;11.804;2022-11-15T18:37:13;7.20;;;4.63;;
21827;SDS011;11076;47.942;11.804;2022-11-15T18:42:15;8.97;;;4.67;;
21827;SDS011;11076;47.942;11.804;2022-11-15T18:47:18;8.27;;;4.33;;
21827;SDS011;11076;47.942;11.804;2022-11-15T18:52:20;6.83;;;4.50;;
21827;SDS011;11076;47.942;11.804;2022-11-15T18:57:23;9.40;;;4.67;;
21827;SDS011;11076;47.942;11.804;2022-11-15T19:02:25;10.47;;;4.90;;
21827;SDS011;11076;47.942;11.804;2022-11-15T19:07:29;6.50;;;4.13;;
21827;SDS011;11076;47.942;11.804;2022-11-15T19:12:31;7.97;;;3.93;;
21827;SDS011;11076;47.942;11.804;2022-11-15T19:17:33;11.13;;;6.30;;
21827;SDS011;11076;47.942;11.804;2022-11-15T19:22:36;10.23;;;5.57;;
21827;SDS011;11076;47.942;11.804;2022-11-15T19:27:38;8.60;;;4.80;;
21827;SDS011;11076;47.942;11.804;2022-11-15T19:32:40;8.60;;;5.13;;
21827;SDS011;11076;47.942;11.804;2022-11-15T19:37:43;9.50;;;4.87;;
21827;SDS011;11076;47.942;11.804;2022-11-15T19:42:45;6.37;;;4.67;;
21827;SDS011;11076;47.942;11.804;2022-11-15T19:47:47;6.53;;;4.93;;
21827;SDS011;11076;47.942;11.804;2022-11-15T19:52:50;9.33;;;5.60;;
21827;SDS011;11076;47.942;11.804;2022-11-15T19:57:52;16.47;;;7.90;;
21827;SDS011;11076;47.942;11.804;2022-11-15T20:02:55;15.40;;;7.90;;
21827;SDS011;11076;47.942;11.804;2022-11-15T20:07:57;8.67;;;5.97;;
21827;SDS011;11076;47.942;11.804;2022-11-15T20:12:59;7.20;;;5.47;;
21827;SDS011;11076;47.942;11.804;2022-11-15T20:18:02;8.67;;;5.80;;
21827;SDS011;11076;47.942;11.804;2022-11-15T20:23:05;9.77;;;6.20;;
21827;SDS011;11076;47.942;11.804;2022-11-15T20:28:11;6.50;;;5.00;;
21827;SDS011;11076;47.942;11.804;2022-11-15T20:33:21;13.00;;;5.20;;
21827;SDS011;11076;47.942;11.804;2022-11-15T20:38:23;8.30;;;4.70;;
21827;SDS011;11076;47.942;11.804;2022-11-15T20:43:26;7.87;;;4.60;;
21827;SDS011;11076;47.942;11.804;2022-11-15T20:48:28;14.83;;;6.53;;
21827;SDS011;11076;47.942;11.804;2022-11-15T20:53:31;6.00;;;4.50;;
21827;SDS011;11076;47.942;11.804;2022-11-15T20:58:34;9.63;;;5.00;;
21827;SDS011;11076;47.942;11.804;2022-11-15T21:03:37;4.53;;;3.90;;
21827;SDS011;11076;47.942;11.804;2022-11-15T21:08:40;10.63;;;6.07;;
21827;SDS011;11076;47.942;11.804;2022-11-15T21:14:01;12.83;;;6.07;;
21827;SDS011;11076;47.942;11.804;2022-11-15T21:19:06;6.30;;;4.43;;
21827;SDS011;11076;47.942;11.804;2022-11-15T21:24:08;7.83;;;5.23;;
21827;SDS011;11076;47.942;11.804;2022-11-15T21:29:11;7.87;;;5.50;;
21827;SDS011;11076;47.942;11.804;2022-11-15T21:34:18;10.93;;;5.83;;
21827;SDS011;11076;47.942;11.804;2022-11-15T21:39:21;8.50;;;5.67;;
21827;SDS011;11076;47.942;11.804;2022-11-15T21:44:23;7.50;;;4.57;;
21827;SDS011;11076;47.942;11.804;2022-11-15T21:49:25;17.47;;;8.53;;
21827;SDS011;11076;47.942;11.804;2022-11-15T21:54:28;6.73;;;5.13;;
21827;SDS011;11076;47.942;11.804;2022-11-15T21:59:30;10.00;;;4.77;;
21827;SDS011;11076;47.942;11.804;2022-11-15T22:04:32;8.70;;;5.77;;
21827;SDS011;11076;47.942;11.804;2022-11-15T22:09:35;8.43;;;5.20;;
21827;SDS011;11076;47.942;11.804;2022-11-15T22:14:37;8.73;;;5.73;;
21827;SDS011;11076;47.942;11.804;2022-11-15T22:19:39;8.23;;;5.33;;
21827;SDS011;11076;47.942;11.804;2022-11-15T22:24:52;11.53;;;7.30;;
21827;SDS011;11076;47.942;11.804;2022-11-15T22:29:55;11.67;;;6.20;;
21827;SDS011;11076;47.942;11.804;2022-11-15T22:34:57;9.23;;;6.00;;
21827;SDS011;11076;47.942;11.804;2022-11-15T22:39:59;7.10;;;5.63;;
21827;SDS011;11076;47.942;11.804;2022-11-15T22:45:02;8.93;;;6.00;;
21827;SDS011;11076;47.942;11.804;2022-11-15T22:50:05;6.90;;;4.90;;
21827;SDS011;11076;47.942;11.804;2022-11-15T22:55:08;6.80;;;4.23;;
21827;SDS011;11076;47.942;11.804;2022-11-15T23:00:11;7.10;;;4.53;;
21827;SDS011;11076;47.942;11.804;2022-11-15T23:05:16;9.03;;;4.90;;
21827;SDS011;11076;47.942;11.804;2022-11-15T23:10:19;8.57;;;5.03;;
21827;SDS011;11076;47.942;11.804;2022-11-15T23:15:40;6.33;;;4.50;;
21827;SDS011;11076;47.942;11.804;2022-11-15T23:21:12;7.40;;;4.47;;
21827;SDS011;11076;47.942;11.804;2022-11-15T23:26:16;7.97;;;4.80;;
21827;SDS011;11076;47.942;11.804;2022-11-15T23:31:18;5.50;;;4.33;;
21827;SDS011;11076;47.942;11.804;2022-11-15T23:36:39;7.97;;;5.13;;
21827;SDS011;11076;47.942;11.804;2022-11-15T23:41:42;5.97;;;4.43;;
21827;SDS011;11076;47.942;11.804;2022-11-15T23:46:45;8.07;;;5.33;;
21827;SDS011;11076;47.942;11.804;2022-11-15T23:51:47;8.53;;;4.97;;
21827;SDS011;11076;47.942;11.804;2022-11-15T23:56:50;9.73;;;5.47;;
